sensor_id;sensor_type;location;lat;lon;timestamp;P1;durP1;ratioP1;P2;durP2;ratioP2
58089;SDS011;45149;50.976;6.120;2022-12-18T14:33:48;16.20;;;14.45;;
58089;SDS011;45149;50.976;6.120;2022-12-18T14:36:18;17.50;;;14.02;;
58089;SDS011;45149;50.976;6.120;2022-12-18T14:38:49;15.30;;;13.43;;
58089;SDS011;45149;50.976;6.120;2022-12-18T14:41:21;16.02;;;14.25;;
58089;SDS011;45149;50.976;6.120;2022-12-18T14:43:49;15.40;;;13.07;;
58089;SDS011;45149;50.976;6.120;2022-12-18T18:59:50;836.70;;;613.85;;
58089;SDS011;45149;50.976;6.120;2022-12-18T19:02:16;832.95;;;618.35;;
58089;SDS011;45149;50.976;6.120;2022-12-18T19:04:41;852.88;;;638.00;;
58089;SDS011;45149;50.976;6.120;2022-12-18T19:07:07;837.78;;;626.78;;
58089;SDS011;45149;50.976;6.120;2022-12-18T19:09:33;859.95;;;639.80;;
58089;SDS011;45149;50.976;6.120;2022-12-18T19:12:00;881.20;;;655.60;;
58089;SDS011;45149;50.976;6.120;2022-12-18T19:14:44;857.28;;;640.95;;
58089;SDS011;45149;50.976;6.120;2022-12-18T19:17:10;836.42;;;630.17;;
58089;SDS011;45149;50.976;6.120;2022-12-18T19:19:35;856.10;;;644.83;;
58089;SDS011;45149;50.976;6.120;2022-12-18T19:22:00;860.83;;;645.50;;
58089;SDS011;45149;50.976;6.120;2022-12-18T19:24:26;827.80;;;625.55;;
58089;SDS011;45149;50.976;6.120;2022-12-18T19:26:51;835.35;;;633.55;;
58089;SDS011;45149;50.976;6.120;2022-12-18T19:29:18;824.20;;;629.42;;
58089;SDS011;45149;50.976;6.120;2022-12-18T19:31:43;912.83;;;676.90;;
58089;SDS011;45149;50.976;6.120;2022-12-18T19:34:08;916.17;;;681.92;;
58089;SDS011;45149;50.976;6.120;2022-12-18T19:36:36;912.42;;;686.60;;
58089;SDS011;45149;50.976;6.120;2022-12-18T19:39:13;934.97;;;696.45;;
58089;SDS011;45149;50.976;6.120;2022-12-18T19:41:41;922.13;;;692.25;;
58089;SDS011;45149;50.976;6.120;2022-12-18T19:44:08;908.03;;;678.38;;
58089;SDS011;45149;50.976;6.120;2022-12-18T19:46:35;1025.78;;;746.63;;
58089;SDS011;45149;50.976;6.120;2022-12-18T19:58:55;383.30;;;262.50;;
58089;SDS011;45149;50.976;6.120;2022-12-18T20:01:21;377.98;;;262.33;;
58089;SDS011;45149;50.976;6.120;2022-12-18T20:03:48;395.85;;;271.35;;
58089;SDS011;45149;50.976;6.120;2022-12-18T20:06:17;384.13;;;268.33;;
58089;SDS011;45149;50.976;6.120;2022-12-18T20:08:49;380.92;;;266.05;;
58089;SDS011;45149;50.976;6.120;2022-12-18T20:11:15;384.15;;;267.83;;
58089;SDS011;45149;50.976;6.120;2022-12-18T20:13:40;371.08;;;259.23;;
58089;SDS011;45149;50.976;6.120;2022-12-18T20:16:06;378.95;;;264.25;;
58089;SDS011;45149;50.976;6.120;2022-12-18T20:18:31;372.58;;;258.20;;
58089;SDS011;45149;50.976;6.120;2022-12-18T20:20:56;373.23;;;257.65;;
58089;SDS011;45149;50.976;6.120;2022-12-18T20:23:22;367.50;;;257.67;;
58089;SDS011;45149;50.976;6.120;2022-12-18T20:25:47;370.55;;;257.88;;
58089;SDS011;45149;50.976;6.120;2022-12-18T20:28:13;353.65;;;243.85;;
58089;SDS011;45149;50.976;6.120;2022-12-18T20:30:38;357.30;;;248.27;;
58089;SDS011;45149;50.976;6.120;2022-12-18T20:33:04;364.73;;;253.77;;
58089;SDS011;45149;50.976;6.120;2022-12-18T20:35:30;362.58;;;255.13;;
58089;SDS011;45149;50.976;6.120;2022-12-18T20:37:56;355.83;;;244.88;;
58089;SDS011;45149;50.976;6.120;2022-12-18T20:40:21;352.38;;;249.18;;
58089;SDS011;45149;50.976;6.120;2022-12-18T20:42:47;356.23;;;245.40;;
58089;SDS011;45149;50.976;6.120;2022-12-18T20:45:12;352.73;;;246.15;;
58089;SDS011;45149;50.976;6.120;2022-12-18T20:47:38;353.88;;;247.50;;
58089;SDS011;45149;50.976;6.120;2022-12-18T20:50:03;353.92;;;241.80;;
58089;SDS011;45149;50.976;6.120;2022-12-18T20:52:29;347.38;;;243.60;;
58089;SDS011;45149;50.976;6.120;2022-12-18T20:54:55;350.33;;;243.38;;
58089;SDS011;45149;50.976;6.120;2022-12-18T20:57:20;343.23;;;240.07;;
58089;SDS011;45149;50.976;6.120;2022-12-18T20:59:46;345.30;;;241.82;;
58089;SDS011;45149;50.976;6.120;2022-12-18T21:02:11;343.25;;;237.48;;
58089;SDS011;45149;50.976;6.120;2022-12-18T21:04:37;339.48;;;231.05;;
58089;SDS011;45149;50.976;6.120;2022-12-18T21:07:03;329.55;;;227.15;;
58089;SDS011;45149;50.976;6.120;2022-12-18T21:09:29;335.52;;;232.60;;
58089;SDS011;45149;50.976;6.120;2022-12-18T21:11:55;330.60;;;229.52;;
58089;SDS011;45149;50.976;6.120;2022-12-18T21:14:39;321.15;;;222.98;;
58089;SDS011;45149;50.976;6.120;2022-12-18T21:17:05;332.27;;;232.95;;
58089;SDS011;45149;50.976;6.120;2022-12-18T21:19:31;331.67;;;231.77;;
58089;SDS011;45149;50.976;6.120;2022-12-18T21:21:56;327.27;;;224.55;;
58089;SDS011;45149;50.976;6.120;2022-12-18T21:24:22;321.95;;;224.57;;
58089;SDS011;45149;50.976;6.120;2022-12-18T21:26:48;326.23;;;225.43;;
58089;SDS011;45149;50.976;6.120;2022-12-18T21:29:15;324.60;;;225.95;;
58089;SDS011;45149;50.976;6.120;2022-12-18T21:31:46;323.15;;;225.25;;
58089;SDS011;45149;50.976;6.120;2022-12-18T21:34:16;320.45;;;221.07;;
58089;SDS011;45149;50.976;6.120;2022-12-18T21:36:44;322.05;;;222.30;;
58089;SDS011;45149;50.976;6.120;2022-12-18T21:39:10;327.40;;;223.77;;
58089;SDS011;45149;50.976;6.120;2022-12-18T21:41:36;312.30;;;213.90;;
58089;SDS011;45149;50.976;6.120;2022-12-18T21:44:19;314.63;;;218.38;;
58089;SDS011;45149;50.976;6.120;2022-12-18T21:46:46;321.55;;;225.00;;
58089;SDS011;45149;50.976;6.120;2022-12-18T21:49:13;313.02;;;215.38;;
58089;SDS011;45149;50.976;6.120;2022-12-18T21:51:42;304.17;;;210.85;;
58089;SDS011;45149;50.976;6.120;2022-12-18T21:54:08;305.33;;;213.18;;
58089;SDS011;45149;50.976;6.120;2022-12-18T21:56:50;308.90;;;216.48;;
58089;SDS011;45149;50.976;6.120;2022-12-18T21:59:20;299.67;;;208.43;;
58089;SDS011;45149;50.976;6.120;2022-12-18T22:01:48;306.10;;;209.25;;
58089;SDS011;45149;50.976;6.120;2022-12-18T22:04:14;303.95;;;209.20;;
58089;SDS011;45149;50.976;6.120;2022-12-18T22:06:41;302.67;;;206.85;;
58089;SDS011;45149;50.976;6.120;2022-12-18T22:09:07;299.98;;;208.20;;
58089;SDS011;45149;50.976;6.120;2022-12-18T22:11:34;302.48;;;205.57;;
58089;SDS011;45149;50.976;6.120;2022-12-18T22:14:00;293.88;;;202.82;;
58089;SDS011;45149;50.976;6.120;2022-12-18T22:16:25;299.27;;;202.85;;
58089;SDS011;45149;50.976;6.120;2022-12-18T22:18:51;300.33;;;206.57;;
58089;SDS011;45149;50.976;6.120;2022-12-18T22:21:24;300.25;;;208.10;;
58089;SDS011;45149;50.976;6.120;2022-12-18T22:23:54;298.95;;;205.82;;
58089;SDS011;45149;50.976;6.120;2022-12-18T22:26:21;304.07;;;208.77;;
58089;SDS011;45149;50.976;6.120;2022-12-18T22:28:47;287.77;;;200.00;;
58089;SDS011;45149;50.976;6.120;2022-12-18T22:31:31;295.60;;;203.68;;
58089;SDS011;45149;50.976;6.120;2022-12-18T22:33:57;288.55;;;197.57;;
58089;SDS011;45149;50.976;6.120;2022-12-18T22:36:22;287.95;;;196.90;;
58089;SDS011;45149;50.976;6.120;2022-12-18T22:38:48;288.33;;;197.70;;
58089;SDS011;45149;50.976;6.120;2022-12-18T22:41:14;284.63;;;193.85;;
58089;SDS011;45149;50.976;6.120;2022-12-18T22:43:39;278.40;;;191.02;;
58089;SDS011;45149;50.976;6.120;2022-12-18T22:46:04;287.05;;;195.68;;
58089;SDS011;45149;50.976;6.120;2022-12-18T22:48:30;279.55;;;190.23;;
58089;SDS011;45149;50.976;6.120;2022-12-18T22:50:55;282.65;;;194.88;;
58089;SDS011;45149;50.976;6.120;2022-12-18T22:53:20;285.85;;;195.93;;
58089;SDS011;45149;50.976;6.120;2022-12-18T22:55:46;271.73;;;185.25;;
58089;SDS011;45149;50.976;6.120;2022-12-18T22:58:11;271.52;;;181.85;;
58089;SDS011;45149;50.976;6.120;2022-12-18T23:00:36;275.42;;;189.07;;
58089;SDS011;45149;50.976;6.120;2022-12-18T23:03:02;266.80;;;180.40;;
58089;SDS011;45149;50.976;6.120;2022-12-18T23:05:28;274.10;;;188.00;;
58089;SDS011;45149;50.976;6.120;2022-12-18T23:07:54;280.65;;;191.50;;
58089;SDS011;45149;50.976;6.120;2022-12-18T23:10:19;277.42;;;187.60;;
58089;SDS011;45149;50.976;6.120;2022-12-18T23:12:45;270.50;;;186.77;;
58089;SDS011;45149;50.976;6.120;2022-12-18T23:15:10;265.23;;;180.07;;
58089;SDS011;45149;50.976;6.120;2022-12-18T23:17:36;274.92;;;183.82;;
58089;SDS011;45149;50.976;6.120;2022-12-18T23:20:01;274.13;;;185.13;;
58089;SDS011;45149;50.976;6.120;2022-12-18T23:22:28;268.13;;;180.88;;
58089;SDS011;45149;50.976;6.120;2022-12-18T23:24:53;265.25;;;181.77;;
58089;SDS011;45149;50.976;6.120;2022-12-18T23:27:19;254.95;;;170.45;;
58089;SDS011;45149;50.976;6.120;2022-12-18T23:29:44;253.77;;;167.40;;
58089;SDS011;45149;50.976;6.120;2022-12-18T23:32:09;252.80;;;169.10;;
58089;SDS011;45149;50.976;6.120;2022-12-18T23:34:35;259.15;;;172.80;;
58089;SDS011;45149;50.976;6.120;2022-12-18T23:37:00;258.60;;;174.65;;
58089;SDS011;45149;50.976;6.120;2022-12-18T23:39:27;256.17;;;172.68;;
58089;SDS011;45149;50.976;6.120;2022-12-18T23:41:52;251.13;;;170.23;;
58089;SDS011;45149;50.976;6.120;2022-12-18T23:44:18;258.13;;;173.60;;
58089;SDS011;45149;50.976;6.120;2022-12-18T23:46:43;251.82;;;169.50;;
58089;SDS011;45149;50.976;6.120;2022-12-18T23:49:09;247.30;;;165.13;;
58089;SDS011;45149;50.976;6.120;2022-12-18T23:51:34;248.88;;;167.13;;
58089;SDS011;45149;50.976;6.120;2022-12-18T23:53:59;250.35;;;167.10;;
58089;SDS011;45149;50.976;6.120;2022-12-18T23:56:26;253.32;;;170.40;;
58089;SDS011;45149;50.976;6.120;2022-12-18T23:58:52;248.27;;;165.93;;
